Time;durP1;ratioP1;P1;durP2;ratioP2;P2;SDS_P1;SDS_P2;PMS_P1;PMS_P2;Temp;Humidity;BMP_temperature;BMP_pressure;BME280_temperature;BME280_humidity;BME280_pressure;Samples;Min_cycle;Max_cycle;Signal;HPM_P1;HPM_P2
2021/08/21 00:00:07;;;;;;;19.45;7.30;;;16.90;99.90;;;;;;5037865;28;20069;-82
2021/08/21 00:02:39;;;;;;;10.52;5.57;;;16.90;99.90;;;;;;5060139;28;20041;-82
2021/08/21 00:05:09;;;;;;;13.20;6.20;;;16.80;99.90;;;;;;5058372;28;20055;-82
2021/08/21 00:07:37;;;;;;;14.57;6.03;;;16.80;99.90;;;;;;5066049;28;20045;-83
2021/08/21 00:10:21;;;;;;;11.07;5.15;;;16.80;99.90;;;;;;5064240;28;20067;-82
2021/08/21 00:12:49;;;;;;;15.45;6.10;;;16.70;99.90;;;;;;5051340;28;20050;-82
2021/08/21 00:15:19;;;;;;;11.55;5.20;;;16.70;99.90;;;;;;5053444;28;20068;-81
2021/08/21 00:17:49;;;;;;;16.90;7.35;;;16.70;99.90;;;;;;5047613;28;20068;-82
2021/08/21 00:20:18;;;;;;;16.45;6.32;;;16.60;99.90;;;;;;5044623;28;20041;-82
2021/08/21 00:22:46;;;;;;;11.20;6.78;;;16.60;99.90;;;;;;5057780;28;20061;-82
2021/08/21 00:25:14;;;;;;;14.65;6.25;;;16.60;99.90;;;;;;5050181;28;20037;-82
2021/08/21 00:27:43;;;;;;;19.35;7.57;;;16.60;99.90;;;;;;5047423;28;20434;-82
2021/08/21 00:30:12;;;;;;;17.20;8.05;;;16.60;99.90;;;;;;5065424;28;20067;-82
2021/08/21 00:32:41;;;;;;;22.38;9.30;;;16.60;99.90;;;;;;5048730;28;20067;-82
2021/08/21 00:35:10;;;;;;;21.20;9.25;;;16.60;99.90;;;;;;5061731;28;20041;-82
2021/08/21 00:37:38;;;;;;;23.55;10.18;;;16.60;99.90;;;;;;5052390;28;20055;-82
2021/08/21 00:40:07;;;;;;;20.13;8.15;;;16.60;99.90;;;;;;5053765;28;20053;-83
2021/08/21 00:42:35;;;;;;;14.95;7.35;;;16.60;99.90;;;;;;5053838;28;20048;-82
2021/08/21 00:45:07;;;;;;;15.82;7.25;;;16.60;99.90;;;;;;5050468;28;20052;-82
2021/08/21 00:47:34;;;;;;;14.82;7.30;;;16.60;99.90;;;;;;5048150;28;20041;-83
2021/08/21 00:50:04;;;;;;;15.48;8.43;;;16.60;99.90;;;;;;5030817;28;20545;-83
2021/08/21 00:52:34;;;;;;;19.58;7.72;;;16.60;99.90;;;;;;5061468;28;20045;-82
2021/08/21 00:55:04;;;;;;;19.93;8.27;;;16.60;99.90;;;;;;5031391;28;20045;-82
2021/08/21 00:57:32;;;;;;;13.82;7.57;;;16.70;99.90;;;;;;5051920;28;20041;-82
2021/08/21 01:00:01;;;;;;;17.92;7.97;;;16.70;99.90;;;;;;5031458;28;20052;-82
2021/08/21 01:02:31;;;;;;;19.27;6.95;;;16.70;99.90;;;;;;5058255;28;20045;-82
2021/08/21 01:05:01;;;;;;;17.50;6.83;;;16.70;99.90;;;;;;5043697;28;20049;-82
2021/08/21 01:07:34;;;;;;;16.00;7.38;;;16.70;99.90;;;;;;5042794;28;20049;-82
2021/08/21 01:10:08;;;;;;;16.58;7.85;;;16.80;99.90;;;;;;5061685;28;20042;-82
2021/08/21 01:12:46;;;;;;;21.08;8.38;;;16.80;99.90;;;;;;5062547;28;20049;-82
2021/08/21 01:15:19;;;;;;;16.67;8.25;;;16.80;99.90;;;;;;5053195;28;20045;-81
2021/08/21 01:18:04;;;;;;;18.27;7.65;;;16.80;99.90;;;;;;5053076;28;20047;-82
2021/08/21 01:20:32;;;;;;;15.52;6.90;;;16.80;99.90;;;;;;5050830;28;20452;-80
2021/08/21 01:23:02;;;;;;;17.20;7.85;;;16.80;99.90;;;;;;5068499;28;20048;-83
2021/08/21 01:25:38;;;;;;;17.75;7.38;;;16.70;99.90;;;;;;5052117;28;20048;-82
2021/08/21 01:28:10;;;;;;;18.05;6.38;;;16.80;99.90;;;;;;5069080;28;20044;-83
2021/08/21 01:30:50;;;;;;;15.60;7.25;;;16.70;99.90;;;;;;5070925;28;20045;-82
2021/08/21 01:33:36;;;;;;;17.40;6.85;;;16.70;99.90;;;;;;5035347;28;20053;-83
2021/08/21 01:36:04;;;;;;;16.55;7.40;;;16.70;99.90;;;;;;5057211;28;20057;-82
2021/08/21 01:38:35;;;;;;;19.35;7.82;;;16.70;99.90;;;;;;5059940;28;20056;-82
2021/08/21 01:41:23;;;;;;;16.30;7.07;;;16.70;99.90;;;;;;5052046;28;20041;-83
2021/08/21 01:43:57;;;;;;;18.45;7.45;;;16.70;99.90;;;;;;5062155;28;20308;-82
2021/08/21 01:46:25;;;;;;;18.30;7.97;;;16.60;99.90;;;;;;5042364;28;20060;-82
2021/08/21 01:49:02;;;;;;;14.32;7.72;;;16.70;99.90;;;;;;5065732;28;20055;-82
2021/08/21 01:51:31;;;;;;;19.67;8.10;;;16.60;99.90;;;;;;5067766;28;20045;-82
2021/08/21 01:54:03;;;;;;;21.45;8.23;;;16.70;99.90;;;;;;5045064;28;20052;-81
2021/08/21 01:56:53;;;;;;;15.40;8.00;;;16.60;99.90;;;;;;5047918;28;20053;-82
2021/08/21 01:59:38;;;;;;;14.60;7.32;;;16.60;99.90;;;;;;5047775;28;20454;-82
2021/08/21 02:02:19;;;;;;;20.90;8.23;;;16.60;99.90;;;;;;5061657;28;20063;-81
2021/08/21 02:05:08;;;;;;;16.25;7.90;;;16.70;99.90;;;;;;5043608;28;20064;-81
2021/08/21 02:07:36;;;;;;;21.38;9.27;;;16.60;99.90;;;;;;5050146;28;20051;-82
2021/08/21 02:10:05;;;;;;;20.63;10.30;;;16.60;99.90;;;;;;5065746;28;20049;-82
2021/08/21 02:12:34;;;;;;;17.17;8.77;;;16.60;99.90;;;;;;5046221;28;20380;-81
2021/08/21 02:15:13;;;;;;;19.17;9.13;;;16.60;99.90;;;;;;5028780;28;20059;-82
2021/08/21 02:17:48;;;;;;;18.25;9.13;;;16.60;99.90;;;;;;5047655;28;20054;-81
2021/08/21 02:20:40;;;;;;;15.57;8.80;;;16.60;99.90;;;;;;5066695;28;20053;-82
2021/08/21 02:23:14;;;;;;;17.95;8.40;;;16.60;99.90;;;;;;5046866;28;20408;-82
2021/08/21 02:25:42;;;;;;;22.42;9.88;;;16.50;99.90;;;;;;5035043;28;20048;-81
2021/08/21 02:28:17;;;;;;;19.98;9.38;;;16.50;99.90;;;;;;5030544;28;20059;-82
2021/08/21 02:30:46;;;;;;;17.02;8.73;;;16.50;99.90;;;;;;5029458;28;20132;-82
2021/08/21 02:33:16;;;;;;;;;;;16.40;99.90;;;;;;5061515;28;20400;-82
2021/08/21 02:35:49;;;;;;;19.08;8.88;;;16.40;99.90;;;;;;5050166;28;19921;-82
2021/08/21 02:38:18;;;;;;;36.90;10.57;;;16.30;99.90;;;;;;5050351;28;20056;-81
2021/08/21 02:40:46;;;;;;;19.00;8.40;;;16.30;99.90;;;;;;5052497;28;20041;-82
2021/08/21 02:43:14;;;;;;;21.77;10.32;;;16.40;99.90;;;;;;5043933;28;20057;-81
2021/08/21 02:45:42;;;;;;;17.55;8.95;;;16.40;99.90;;;;;;5063008;28;20037;-82
2021/08/21 02:48:10;;;;;;;21.17;9.35;;;16.40;99.90;;;;;;5067009;28;20040;-82
2021/08/21 02:50:38;;;;;;;23.33;8.82;;;16.40;99.90;;;;;;5065776;28;20039;-82
2021/08/21 02:53:06;;;;;;;25.17;10.48;;;16.50;99.90;;;;;;5057965;28;20057;-82
2021/08/21 02:55:34;;;;;;;21.70;10.10;;;16.50;99.90;;;;;;5049329;28;20045;-82
2021/08/21 02:58:03;;;;;;;21.58;9.63;;;16.50;99.90;;;;;;5067396;28;20053;-82
2021/08/21 03:00:41;;;;;;;24.42;10.90;;;16.50;99.90;;;;;;5065982;28;20045;-82
2021/08/21 03:03:12;;;;;;;25.73;10.23;;;16.60;99.90;;;;;;5063174;28;20033;-82
2021/08/21 03:05:47;;;;;;;22.80;10.30;;;16.60;99.90;;;;;;5060226;28;20045;-82
2021/08/21 03:08:22;;;;;;;23.45;10.38;;;16.60;99.90;;;;;;5058597;28;20041;-82
2021/08/21 03:10:57;;;;;;;18.77;9.00;;;16.50;99.90;;;;;;5046459;28;20053;-82
2021/08/21 03:13:32;;;;;;;19.42;8.40;;;16.50;99.90;;;;;;5032416;28;20060;-82
2021/08/21 03:16:02;;;;;;;20.10;10.37;;;16.50;99.90;;;;;;5038597;28;20053;-82
2021/08/21 03:18:30;;;;;;;23.98;10.55;;;16.50;99.90;;;;;;5065681;28;20301;-81
2021/08/21 03:21:01;;;;;;;23.33;10.70;;;16.50;99.90;;;;;;5054042;28;20064;-82
2021/08/21 03:23:31;;;;;;;;;;;16.50;99.90;;;;;;5047874;28;20053;-81
2021/08/21 03:25:59;;;;;;;23.95;10.60;;;16.50;99.90;;;;;;5057008;28;19928;-82
2021/08/21 03:28:34;;;;;;;24.08;10.20;;;16.50;99.90;;;;;;5050867;28;20038;-81
2021/08/21 03:31:02;;;;;;;19.55;9.32;;;16.50;99.90;;;;;;5062764;28;20072;-82
2021/08/21 03:33:30;;;;;;;24.48;9.88;;;16.50;99.90;;;;;;5048915;28;20060;-82
2021/08/21 03:36:00;;;;;;;20.15;10.48;;;16.40;99.90;;;;;;5045093;28;20053;-81
2021/08/21 03:38:30;;;;;;;20.52;10.07;;;16.40;99.90;;;;;;5039626;28;20243;-82
2021/08/21 03:41:05;;;;;;;24.05;10.35;;;16.50;99.90;;;;;;5065830;28;20048;-82
2021/08/21 03:43:43;;;;;;;23.80;10.48;;;16.40;99.90;;;;;;5063468;28;20053;-82
2021/08/21 03:46:11;;;;;;;18.65;9.90;;;16.50;99.90;;;;;;5065785;28;20131;-82
2021/08/21 03:48:39;;;;;;;19.10;9.85;;;16.50;99.90;;;;;;5034610;28;20519;-83
2021/08/21 03:51:07;;;;;;;18.38;9.07;;;16.50;99.90;;;;;;5040812;28;20048;-82
2021/08/21 03:53:41;;;;;;;23.30;9.65;;;16.50;99.90;;;;;;5038911;28;20049;-82
2021/08/21 03:56:13;;;;;;;19.23;9.57;;;16.50;99.90;;;;;;5065127;28;20037;-81
2021/08/21 03:58:48;;;;;;;19.98;9.73;;;16.50;99.90;;;;;;5065414;28;20060;-82
2021/08/21 04:01:16;;;;;;;20.58;11.63;;;16.40;99.90;;;;;;5063996;28;20185;-82
2021/08/21 04:03:47;;;;;;;21.63;11.07;;;16.40;99.90;;;;;;5052163;28;20056;-82
2021/08/21 04:06:19;;;;;;;26.38;10.45;;;16.50;99.90;;;;;;5049896;28;20597;-82
2021/08/21 04:08:48;;;;;;;19.85;11.15;;;16.50;99.90;;;;;;5060490;28;20064;-82
2021/08/21 04:11:25;;;;;;;21.42;9.98;;;16.50;99.90;;;;;;5047176;28;20046;-82
2021/08/21 04:14:07;;;;;;;21.65;9.18;;;16.40;99.90;;;;;;5049108;28;20055;-82
2021/08/21 04:16:35;;;;;;;17.83;8.32;;;16.40;99.90;;;;;;5049210;28;20112;-82
2021/08/21 04:19:05;;;;;;;16.10;8.80;;;16.40;99.90;;;;;;5060190;28;20054;-82
2021/08/21 04:21:40;;;;;;;17.55;9.13;;;16.40;99.90;;;;;;5081157;28;20059;-82
2021/08/21 04:24:19;;;;;;;18.45;8.10;;;16.50;99.90;;;;;;5039880;28;20076;-82
2021/08/21 04:26:53;;;;;;;18.65;8.30;;;16.40;99.90;;;;;;5039682;28;20053;-82
2021/08/21 04:29:22;;;;;;;24.35;9.60;;;16.40;99.90;;;;;;5048402;28;20041;-81
2021/08/21 04:31:50;;;;;;;17.08;8.80;;;16.40;99.90;;;;;;5061836;28;20047;-81
2021/08/21 04:34:20;;;;;;;20.85;9.45;;;16.80;99.90;;;;;;5048930;28;20048;-81
2021/08/21 04:36:49;;;;;;;21.10;8.70;;;16.40;99.90;;;;;;5063614;28;20115;-82
2021/08/21 04:39:24;;;;;;;18.52;9.20;;;16.40;99.90;;;;;;5067832;28;20055;-82
2021/08/21 04:41:54;;;;;;;19.40;7.80;;;16.40;99.90;;;;;;5050937;28;20071;-82
2021/08/21 04:44:23;;;;;;;19.17;8.43;;;16.40;99.90;;;;;;5069567;28;20592;-82
2021/08/21 04:46:51;;;;;;;17.77;8.15;;;16.40;99.90;;;;;;5055466;28;20053;-82
2021/08/21 04:49:22;;;;;;;18.30;8.75;;;16.40;99.90;;;;;;5050734;28;20055;-83
2021/08/21 04:51:51;;;;;;;17.65;8.70;;;16.40;99.90;;;;;;5065613;28;20214;-82
2021/08/21 04:54:22;;;;;;;14.65;7.72;;;16.40;99.90;;;;;;5045547;28;20045;-83
2021/08/21 04:56:50;;;;;;;18.15;8.95;;;16.40;99.90;;;;;;5047790;28;20054;-82
2021/08/21 04:59:25;;;;;;;19.58;9.52;;;16.30;99.90;;;;;;5048979;28;20052;-82
2021/08/21 05:02:07;;;;;;;18.17;8.15;;;16.40;99.90;;;;;;5031226;28;20065;-82
2021/08/21 05:04:35;;;;;;;15.25;8.35;;;16.30;99.90;;;;;;5032781;28;20049;-82
2021/08/21 05:07:04;;;;;;;20.23;8.63;;;16.30;99.90;;;;;;5057981;28;20053;-82
2021/08/21 05:09:41;;;;;;;15.20;6.85;;;16.30;99.90;;;;;;5058314;28;20053;-82
2021/08/21 05:12:14;;;;;;;15.38;6.78;;;16.20;99.90;;;;;;5060931;28;20059;-82
2021/08/21 05:14:53;;;;;;;15.77;7.50;;;16.30;99.90;;;;;;5069978;28;20045;-82
2021/08/21 05:17:23;;;;;;;20.00;7.32;;;16.30;99.90;;;;;;5067791;28;20049;-82
2021/08/21 05:20:18;;;;;;;14.87;7.50;;;16.20;99.90;;;;;;5068183;28;20193;-82
2021/08/21 05:23:13;;;;;;;15.18;6.32;;;16.20;99.90;;;;;;5053440;28;20309;-81
2021/08/21 05:25:48;;;;;;;17.90;8.35;;;16.00;99.90;;;;;;5049489;28;20056;-82
2021/08/21 05:28:18;;;;;;;13.88;6.30;;;16.20;99.90;;;;;;5061331;28;20059;-82
2021/08/21 05:30:54;;;;;;;13.45;6.72;;;16.20;99.90;;;;;;5053150;28;20350;-82
2021/08/21 05:33:22;;;;;;;12.60;6.57;;;16.20;99.90;;;;;;5066657;28;20073;-82
2021/08/21 05:35:50;;;;;;;14.93;6.50;;;16.20;99.90;;;;;;5066467;28;20045;-81
2021/08/21 05:38:18;;;;;;;14.38;6.47;;;16.30;99.90;;;;;;5048743;28;20057;-82
2021/08/21 05:40:46;;;;;;;14.05;7.35;;;16.30;99.90;;;;;;5050691;28;20056;-81
2021/08/21 05:43:16;;;;;;;15.35;8.02;;;16.20;99.90;;;;;;5061479;28;20067;-82
2021/08/21 05:45:44;;;;;;;16.35;8.30;;;16.30;99.90;;;;;;5048353;28;20045;-82
2021/08/21 05:48:13;;;;;;;19.40;8.80;;;16.30;99.90;;;;;;5069367;28;20435;-82
2021/08/21 05:50:43;;;;;;;20.33;8.82;;;16.30;99.90;;;;;;5051625;28;20109;-82
2021/08/21 05:53:13;;;;;;;23.45;9.88;;;16.30;99.90;;;;;;5048116;28;20068;-81
2021/08/21 05:55:41;;;;;;;18.45;7.82;;;16.30;99.90;;;;;;5061556;28;20053;-82
2021/08/21 05:58:16;;;;;;;24.83;8.27;;;16.40;99.90;;;;;;5007543;28;20057;-82
2021/08/21 06:00:48;;;;;;;19.88;7.53;;;16.40;99.90;;;;;;5050670;28;20239;-82
2021/08/21 06:03:17;;;;;;;16.92;8.40;;;16.40;99.90;;;;;;5057021;28;20045;-81
2021/08/21 06:05:45;;;;;;;15.90;7.15;;;16.40;99.90;;;;;;5048465;28;20043;-81
2021/08/21 06:08:13;;;;;;;17.20;9.25;;;16.40;99.90;;;;;;5048404;28;20051;-81
2021/08/21 06:10:48;;;;;;;19.85;8.32;;;16.40;99.90;;;;;;5067345;28;20056;-83
2021/08/21 06:13:20;;;;;;;19.67;8.57;;;16.40;99.90;;;;;;5048210;28;20051;-83
2021/08/21 06:15:49;;;;;;;18.02;8.10;;;16.40;99.90;;;;;;5066395;28;20055;-82
2021/08/21 06:18:17;;;;;;;19.35;8.48;;;16.40;99.90;;;;;;5045752;28;20056;-82
2021/08/21 06:20:46;;;;;;;18.70;9.25;;;16.50;99.90;;;;;;5047479;28;20050;-81
2021/08/21 06:23:14;;;;;;;16.83;8.15;;;16.60;99.90;;;;;;5060063;28;20054;-83
2021/08/21 06:25:42;;;;;;;15.80;7.97;;;16.50;99.90;;;;;;5046056;28;20053;-82
2021/08/21 06:28:10;;;;;;;19.08;7.72;;;16.50;99.90;;;;;;5062544;28;20045;-82
2021/08/21 06:30:38;;;;;;;16.55;8.93;;;16.50;99.90;;;;;;5067192;28;20049;-83
2021/08/21 06:33:06;;;;;;;13.77;6.38;;;16.50;99.90;;;;;;5045821;28;20053;-81
2021/08/21 06:35:34;;;;;;;16.30;7.22;;;16.50;99.90;;;;;;5060986;28;20056;-81
2021/08/21 06:38:02;;;;;;;15.15;6.53;;;17.70;99.90;;;;;;5055043;28;20064;-82
2021/08/21 06:40:35;;;;;;;14.30;6.40;;;16.60;99.90;;;;;;5061705;28;20060;-82
2021/08/21 06:43:04;;;;;;;20.45;8.38;;;16.60;99.90;;;;;;5021600;28;20128;-82
2021/08/21 06:45:50;;;;;;;13.45;7.15;;;16.60;99.90;;;;;;5065568;28;20045;-82
2021/08/21 06:48:17;;;;;;;13.77;7.00;;;16.60;99.90;;;;;;5046038;28;20064;-82
2021/08/21 06:50:45;;;;;;;15.48;7.43;;;16.60;99.90;;;;;;5064251;28;20048;-82
2021/08/21 06:53:15;;;;;;;14.35;7.78;;;16.60;99.90;;;;;;5065856;28;20059;-82
2021/08/21 06:55:44;;;;;;;16.87;8.30;;;16.70;99.90;;;;;;5065119;28;20048;-82
2021/08/21 06:58:14;;;;;;;15.77;8.45;;;16.70;99.90;;;;;;5057542;28;20051;-82
2021/08/21 07:00:43;;;;;;;19.67;6.78;;;16.70;99.90;;;;;;5062502;28;20447;-82
2021/08/21 07:03:11;;;;;;;16.63;7.13;;;17.40;99.90;;;;;;5053880;28;20049;-82
2021/08/21 07:05:40;;;;;;;17.65;7.88;;;16.70;99.90;;;;;;5032641;28;20057;-82
2021/08/21 07:08:11;;;;;;;14.02;7.60;;;16.70;99.90;;;;;;5058995;28;20048;-81
2021/08/21 07:10:40;;;;;;;15.10;6.70;;;16.80;99.90;;;;;;5066367;28;20327;-81
2021/08/21 07:13:09;;;;;;;19.40;7.53;;;16.80;99.90;;;;;;5047832;28;20399;-81
2021/08/21 07:15:38;;;;;;;14.60;6.80;;;16.90;99.90;;;;;;5067215;28;20044;-81
2021/08/21 07:18:06;;;;;;;14.27;7.20;;;16.90;99.90;;;;;;5051912;28;20060;-81
2021/08/21 07:20:34;;;;;;;12.75;5.85;;;17.00;99.90;;;;;;5046596;28;20044;-82
2021/08/21 07:23:02;;;;;;;13.90;6.03;;;17.10;99.90;;;;;;5064474;28;20056;-82
2021/08/21 07:25:30;;;;;;;12.98;6.47;;;17.10;99.90;;;;;;5048473;28;20052;-83
2021/08/21 07:27:59;;;;;;;16.65;7.20;;;17.10;99.90;;;;;;5035031;28;20053;-81
2021/08/21 07:30:30;;;;;;;15.27;6.15;;;17.20;99.90;;;;;;5044508;28;20067;-83
2021/08/21 07:32:59;;;;;;;15.30;6.38;;;17.30;99.90;;;;;;5046290;28;20053;-83
2021/08/21 07:35:29;;;;;;;13.68;5.57;;;17.30;99.90;;;;;;5043356;28;20045;-82
2021/08/21 07:37:58;;;;;;;16.00;6.00;;;17.30;99.90;;;;;;5045730;28;20049;-82
2021/08/21 07:40:26;;;;;;;10.73;4.82;;;17.40;99.90;;;;;;5047639;28;20050;-82
2021/08/21 07:42:54;;;;;;;13.27;5.05;;;17.40;99.90;;;;;;5055848;28;20498;-82
2021/08/21 07:45:22;;;;;;;10.93;4.70;;;17.50;99.90;;;;;;5047067;28;20053;-82
2021/08/21 07:47:51;;;;;;;9.27;3.70;;;17.50;99.90;;;;;;5051166;28;20049;-82
2021/08/21 07:50:20;;;;;;;13.65;5.15;;;17.60;99.90;;;;;;5052941;28;20454;-82
2021/08/21 07:52:49;;;;;;;16.80;5.95;;;17.70;99.90;;;;;;5061588;28;20064;-82
2021/08/21 07:55:18;;;;;;;14.57;5.63;;;17.80;99.90;;;;;;5058702;28;20041;-81
2021/08/21 07:57:58;;;;;;;11.50;5.75;;;17.80;99.90;;;;;;5055210;28;20057;-81
2021/08/21 08:00:28;;;;;;;7.95;3.88;;;17.90;99.90;;;;;;5048600;28;20053;-83
2021/08/21 08:02:56;;;;;;;16.83;3.67;;;18.00;99.90;;;;;;5066602;28;20048;-83
2021/08/21 08:05:24;;;;;;;19.08;5.05;;;18.10;99.90;;;;;;5067282;28;20049;-83
2021/08/21 08:07:53;;;;;;;11.32;4.10;;;18.20;99.90;;;;;;5069276;28;20063;-83
2021/08/21 08:10:22;;;;;;;11.40;3.53;;;18.20;99.90;;;;;;5042037;28;20038;-81
2021/08/21 08:12:53;;;;;;;5.25;3.20;;;18.30;99.90;;;;;;5057320;28;20045;-81
2021/08/21 08:15:22;;;;;;;;;;;18.30;99.90;;;;;;5067668;28;20041;-82
2021/08/21 08:17:52;;;;;;;9.88;3.63;;;18.30;99.90;;;;;;5066699;28;19924;-82
2021/08/21 08:20:21;;;;;;;6.07;3.58;;;18.30;99.90;;;;;;5054787;28;20064;-82
2021/08/21 08:22:51;;;;;;;6.15;3.08;;;18.40;99.90;;;;;;5051272;28;20056;-82
2021/08/21 08:25:19;;;;;;;9.70;3.38;;;18.40;99.90;;;;;;5063006;28;20080;-82
2021/08/21 08:27:47;;;;;;;5.35;2.22;;;18.50;99.90;;;;;;5059130;28;20051;-82
2021/08/21 08:30:21;;;;;;;8.13;3.17;;;18.50;99.90;;;;;;5048869;28;20053;-83
2021/08/21 08:33:08;;;;;;;6.05;3.13;;;18.60;99.90;;;;;;5064290;28;20053;-82
2021/08/21 08:35:38;;;;;;;9.73;3.20;;;18.60;99.90;;;;;;5031315;28;20042;-82
2021/08/21 08:38:06;;;;;;;9.80;3.15;;;18.70;99.90;;;;;;5062638;28;20499;-82
2021/08/21 08:40:35;;;;;;;9.70;3.45;;;18.70;99.90;;;;;;5048799;28;20277;-82
2021/08/21 08:43:04;;;;;;;7.70;2.67;;;18.70;99.90;;;;;;5066947;28;20041;-82
2021/08/21 08:45:32;;;;;;;5.22;2.53;;;18.80;99.90;;;;;;5050913;28;20055;-82
2021/08/21 08:48:02;;;;;;;7.85;2.80;;;18.80;99.90;;;;;;5066695;28;20041;-82
2021/08/21 08:50:31;;;;;;;8.33;2.90;;;18.90;99.90;;;;;;5056128;28;20075;-82
2021/08/21 08:53:01;;;;;;;5.57;2.20;;;18.90;99.90;;;;;;5050792;28;20060;-82
2021/08/21 08:55:29;;;;;;;4.20;2.27;;;18.90;99.90;;;;;;5062517;28;20064;-82
2021/08/21 08:57:59;;;;;;;6.85;1.95;;;19.00;99.90;;;;;;5055472;28;20044;-82
2021/08/21 09:00:28;;;;;;;3.90;1.73;;;19.10;99.90;;;;;;5067980;28;20065;-83
2021/08/21 09:02:58;;;;;;;9.20;2.22;;;19.10;99.90;;;;;;5068362;28;20041;-82
2021/08/21 09:05:35;;;;;;;4.07;2.08;;;19.20;99.90;;;;;;5059397;28;20063;-82
2021/08/21 09:08:03;;;;;;;5.65;2.25;;;19.30;99.90;;;;;;5064089;28;20048;-80
2021/08/21 09:10:33;;;;;;;6.50;3.20;;;19.50;99.90;;;;;;5030611;28;20053;-83
2021/08/21 09:13:12;;;;;;;5.13;2.30;;;19.60;99.90;;;;;;5064428;28;20368;-82
2021/08/21 09:15:47;;;;;;;5.47;2.42;;;19.80;99.90;;;;;;5056408;28;20051;-82
2021/08/21 09:18:20;;;;;;;4.90;1.75;;;19.90;99.90;;;;;;5049400;28;20545;-82
2021/08/21 09:21:08;;;;;;;6.88;1.80;;;20.00;99.90;;;;;;5056625;28;20386;-82
2021/08/21 09:23:46;;;;;;;3.47;2.08;;;20.10;99.90;;;;;;5052458;28;20403;-82
2021/08/21 09:26:41;;;;;;;6.57;1.83;;;20.10;99.90;;;;;;5065997;28;20332;-82
2021/08/21 09:29:10;;;;;;;7.72;2.20;;;20.20;99.90;;;;;;5060241;28;20419;-82
2021/08/21 09:31:39;;;;;;;5.55;2.13;;;20.30;99.90;;;;;;5065266;28;20049;-81
2021/08/21 09:34:11;;;;;;;3.75;2.00;;;20.40;99.90;;;;;;5058418;28;20049;-82
2021/08/21 09:36:40;;;;;;;4.78;1.70;;;20.60;99.90;;;;;;5060220;28;20056;-82
2021/08/21 09:39:12;;;;;;;2.72;1.60;;;20.70;99.90;;;;;;5066150;28;20045;-82
2021/08/21 09:41:59;;;;;;;7.63;2.20;;;20.80;99.90;;;;;;5078196;28;20053;-82
2021/08/21 09:44:36;;;;;;;4.75;2.05;;;20.90;99.90;;;;;;5055420;28;20068;-82
2021/08/21 09:47:32;;;;;;;3.83;1.77;;;21.00;99.90;;;;;;5059681;28;20040;-82
2021/08/21 09:50:16;;;;;;;3.45;2.00;;;21.10;99.90;;;;;;5045502;28;20388;-82
2021/08/21 09:52:45;;;;;;;6.20;1.98;;;21.20;99.90;;;;;;5025944;28;20049;-83
2021/08/21 09:55:19;;;;;;;5.05;2.10;;;21.20;99.90;;;;;;5041269;28;20053;-82
2021/08/21 09:58:01;;;;;;;7.38;2.03;;;21.20;99.90;;;;;;5060769;28;20045;-82
2021/08/21 10:00:31;;;;;;;7.50;2.17;;;21.10;99.90;;;;;;5011572;28;20574;-82
2021/08/21 10:03:00;;;;;;;8.48;2.22;;;21.10;99.90;;;;;;5047634;28;20049;-82
2021/08/21 10:05:28;;;;;;;4.07;1.83;;;21.00;99.90;;;;;;5051300;28;20041;-82
2021/08/21 10:08:02;;;;;;;7.55;2.08;;;21.00;99.90;;;;;;5042879;28;20580;-82
2021/08/21 10:10:38;;;;;;;4.68;2.33;;;20.90;99.90;;;;;;5063291;28;20056;-82
2021/08/21 10:13:24;;;;;;;11.95;2.40;;;20.80;99.90;;;;;;5049733;28;20045;-82
2021/08/21 10:15:54;;;;;;;4.63;1.98;;;20.80;99.90;;;;;;5058320;28;20119;-81
2021/08/21 10:18:23;;;;;;;6.18;2.13;;;20.70;99.90;;;;;;5064336;28;20517;-81
2021/08/21 10:20:53;;;;;;;4.15;1.98;;;20.70;99.90;;;;;;5050785;28;20053;-82
2021/08/21 10:23:28;;;;;;;7.80;2.88;;;20.70;99.90;;;;;;5033324;28;20049;-82
2021/08/21 10:26:14;;;;;;;4.07;2.30;;;20.70;99.90;;;;;;5047540;28;20057;-82
2021/08/21 10:28:42;;;;;;;4.22;2.25;;;20.70;99.90;;;;;;5060595;28;20056;-82
2021/08/21 10:31:38;;;;;;;8.80;2.15;;;20.70;99.90;;;;;;5045203;28;20049;-82
2021/08/21 10:34:07;;;;;;;8.52;2.47;;;20.70;99.90;;;;;;5058292;28;20056;-82
2021/08/21 10:36:56;;;;;;;4.57;1.83;;;20.70;99.90;;;;;;5030546;28;20063;-82
2021/08/21 10:39:39;;;;;;;4.10;2.60;;;20.70;99.90;;;;;;5042375;28;20059;-82
2021/08/21 10:42:30;;;;;;;6.28;2.28;;;20.70;99.90;;;;;;5064987;28;20049;-83
2021/08/21 10:45:00;;;;;;;8.10;2.45;;;20.60;99.90;;;;;;5064954;28;20045;-83
2021/08/21 10:47:30;;;;;;;6.65;2.25;;;20.60;99.90;;;;;;5055743;28;20048;-82
2021/08/21 10:50:16;;;;;;;6.90;2.13;;;20.70;99.90;;;;;;5065001;28;20210;-82
2021/08/21 10:52:54;;;;;;;6.50;2.13;;;20.70;99.90;;;;;;5031710;28;20061;-82
2021/08/21 10:55:28;;;;;;;3.83;2.17;;;20.70;99.90;;;;;;5029003;28;20053;-82
2021/08/21 10:57:59;;;;;;;9.05;2.30;;;20.80;99.90;;;;;;5048787;28;20037;-81
2021/08/21 11:00:40;;;;;;;11.10;3.33;;;20.70;99.90;;;;;;5066147;28;20045;-82
2021/08/21 11:03:13;;;;;;;7.18;2.80;;;20.80;99.90;;;;;;5064897;28;20041;-82
2021/08/21 11:06:03;;;;;;;6.82;2.50;;;20.80;99.90;;;;;;5065658;28;20049;-82
2021/08/21 11:08:41;;;;;;;6.43;2.33;;;20.80;99.90;;;;;;5061447;28;20044;-82
2021/08/21 11:14:07;;;;;;;7.88;2.30;;;20.80;99.90;;;;;;5055423;28;20061;-81
2021/08/21 11:19:36;;;;;;;8.02;3.15;;;20.90;99.90;;;;;;5052472;28;20060;-81
2021/08/21 11:22:13;;;;;;;8.32;2.55;;;21.00;99.90;;;;;;5045396;28;20059;-81
2021/08/21 11:24:51;;;;;;;8.02;3.28;;;21.00;99.90;;;;;;5056676;28;20045;-82
2021/08/21 11:27:22;;;;;;;10.93;3.22;;;21.10;99.90;;;;;;5049658;28;20051;-82
2021/08/21 11:30:06;;;;;;;;;;;21.00;99.90;;;;;;5059378;28;20048;-81
2021/08/21 11:32:44;;;;;;;7.82;2.92;;;21.00;99.90;;;;;;5047504;28;19934;-81
2021/08/21 11:35:26;;;;;;;8.07;3.10;;;21.10;99.90;;;;;;5056603;28;20053;-81
2021/08/21 11:38:00;;;;;;;5.93;3.08;;;21.00;99.90;;;;;;5060494;28;20055;-81
2021/08/21 11:40:45;;;;;;;9.10;3.45;;;21.00;99.90;;;;;;5060769;28;20119;-81
2021/08/21 11:43:21;;;;;;;10.30;3.88;;;20.40;99.90;;;;;;5064909;28;20041;-82
2021/08/21 11:45:50;;;;;;;7.00;3.58;;;21.10;99.90;;;;;;5063011;28;20056;-81
2021/08/21 11:48:19;;;;;;;11.02;3.70;;;20.30;99.90;;;;;;5051597;28;20056;-82
2021/08/21 11:50:49;;;;;;;7.40;3.95;;;21.00;99.90;;;;;;5059825;28;20049;-82
2021/08/21 11:53:25;;;;;;;7.00;4.10;;;21.10;99.90;;;;;;5054094;28;20052;-81
2021/08/21 11:55:56;;;;;;;13.80;4.93;;;21.00;99.90;;;;;;5042837;28;20042;-82
2021/08/21 11:58:36;;;;;;;7.95;4.43;;;21.10;99.90;;;;;;5050718;28;20301;-83
2021/08/21 12:01:24;;;;;;;12.65;5.07;;;21.20;99.90;;;;;;5049310;28;20053;-82
2021/08/21 12:06:34;;;;;;;9.70;4.30;;;21.30;99.90;;;;;;5047223;28;20053;-81
2021/08/21 12:09:13;;;;;;;10.55;5.57;;;21.30;99.90;;;;;;5060275;28;20047;-82
2021/08/21 12:11:43;;;;;;;6.57;3.63;;;21.40;99.90;;;;;;5058765;28;20497;-81
2021/08/21 12:14:13;;;;;;;;;;;21.40;99.90;;;;;;5044211;28;20053;-82
2021/08/21 12:16:43;;;;;;;13.98;4.95;;;21.40;99.90;;;;;;5058539;28;19928;-81
2021/08/21 12:19:11;;;;;;;11.18;5.20;;;21.40;99.90;;;;;;5057327;28;20072;-82
2021/08/21 12:21:40;;;;;;;16.23;5.20;;;21.40;99.90;;;;;;5040094;28;20052;-81
2021/08/21 12:24:10;;;;;;;11.25;4.53;;;21.30;99.90;;;;;;5060533;28;20041;-81
2021/08/21 12:26:46;;;;;;;11.85;5.05;;;21.20;99.90;;;;;;5061117;28;20056;-81
2021/08/21 12:29:25;;;;;;;11.15;4.60;;;21.20;99.90;;;;;;5050681;28;20056;-81
2021/08/21 12:31:54;;;;;;;11.15;5.00;;;21.10;99.90;;;;;;5041102;28;20067;-82
2021/08/21 12:34:24;;;;;;;15.82;4.88;;;21.00;99.90;;;;;;5059156;28;20053;-80
2021/08/21 12:36:57;;;;;;;12.80;5.30;;;20.40;99.90;;;;;;5044273;28;20486;-82
2021/08/21 12:39:28;;;;;;;11.18;4.70;;;21.00;99.90;;;;;;5056579;28;20049;-82
2021/08/21 12:42:05;;;;;;;10.55;3.85;;;21.00;99.90;;;;;;5057462;28;20076;-81
2021/08/21 12:44:35;;;;;;;11.75;5.07;;;20.90;99.90;;;;;;5046286;28;20052;-81
2021/08/21 12:47:12;;;;;;;12.05;4.95;;;20.90;99.90;;;;;;5071711;28;20048;-82
2021/08/21 12:49:45;;;;;;;12.77;5.80;;;20.90;99.90;;;;;;5038609;28;20055;-79
2021/08/21 12:52:27;;;;;;;10.63;5.53;;;20.90;99.90;;;;;;5047712;28;20053;-81
2021/08/21 12:55:01;;;;;;;11.63;5.15;;;20.90;99.90;;;;;;5065703;28;20172;-81
2021/08/21 12:57:37;;;;;;;16.63;6.10;;;20.90;99.90;;;;;;5080522;28;20071;-81
2021/08/21 13:00:10;;;;;;;14.88;5.93;;;20.90;99.90;;;;;;5063887;28;20057;-82
2021/08/21 13:02:48;;;;;;;11.18;5.88;;;20.90;99.90;;;;;;5064961;28;20199;-81
2021/08/21 13:05:27;;;;;;;16.70;6.90;;;20.90;99.90;;;;;;5028925;28;20059;-82
2021/08/21 13:08:07;;;;;;;12.38;6.03;;;20.90;99.90;;;;;;5061382;28;20342;-82
2021/08/21 13:10:39;;;;;;;11.95;6.88;;;20.90;99.90;;;;;;5033512;28;20053;-81
2021/08/21 13:13:10;;;;;;;18.17;8.40;;;20.80;99.90;;;;;;5065087;28;20052;-82
2021/08/21 13:15:40;;;;;;;13.90;6.20;;;20.80;99.90;;;;;;5047808;28;20049;-82